Terminal Aerodrome Forecast
Issued by NWS

Home | Current Version | Previous Version | Text Only | Print | Product List | Glossary Off
Versions: 1 2 3 4 5 6 7 8 9 10 11 12 13 14 15 16 17 18 19 20 21 22 23 24 25 26 27 28 29 30 31 32 33

767
FTUS43 KLOT 290200 AAB
TAFORD
TAF AMD
KORD 290200Z 2902/3006 19012KT P6SM VCTS SCT040CB SCT250
     FM290300 25025G35KT 2SM +TSRA OVC025CB
     FM290430 20010KT P6SM SCT250
     FM291500 23014G22KT P6SM SCT050
     FM292100 27014G22KT P6SM FEW060
     FM300200 24006KT P6SM SKC=

USA.gov is the U.S. government's official web portal to all federal, state and local government web resources and services.